createdAt,value
2019-04-20T00:01:38.768Z,16.00
2019-04-20T00:04:10.807Z,15.90
2019-04-20T00:06:41.708Z,16.00
2019-04-20T00:09:11.832Z,16.00
2019-04-20T00:11:47.596Z,16.00
2019-04-20T00:14:10.326Z,15.90
2019-04-20T00:16:31.746Z,15.90
2019-04-20T00:19:01.602Z,16.00
2019-04-20T00:21:49.649Z,15.90
2019-04-20T00:24:24.810Z,15.90
2019-04-20T00:27:20.723Z,15.90
2019-04-20T00:29:35.706Z,15.90
2019-04-20T00:31:58.397Z,15.80
2019-04-20T00:34:21.095Z,15.80
2019-04-20T00:36:41.487Z,15.70
2019-04-20T00:39:11.372Z,15.80
2019-04-20T00:41:43.814Z,15.60
2019-04-20T00:44:13.298Z,15.60
2019-04-20T00:46:49.792Z,15.60
2019-04-20T00:49:22.879Z,15.60
2019-04-20T00:51:51.105Z,15.50
2019-04-20T00:54:03.640Z,15.30
2019-04-20T00:56:30.986Z,15.70
2019-04-20T00:59:09.178Z,15.60
2019-04-20T01:01:47.486Z,15.60
2019-04-20T01:04:15.360Z,15.50
2019-04-20T01:06:46.758Z,15.50
2019-04-20T01:09:05.486Z,15.40
2019-04-20T01:11:39.498Z,15.40
2019-04-20T01:14:05.986Z,15.30
2019-04-20T01:16:38.669Z,15.40
2019-04-20T01:18:59.036Z,15.40
2019-04-20T01:21:28.818Z,15.30
2019-04-20T01:23:59.929Z,15.30
2019-04-20T01:26:24.866Z,15.30
2019-04-20T01:29:06.277Z,15.30
2019-04-20T01:31:29.322Z,15.30
2019-04-20T01:33:58.796Z,15.20
2019-04-20T01:36:37.058Z,15.10
2019-04-20T01:39:02.970Z,15.10
2019-04-20T01:41:18.143Z,15.10
2019-04-20T01:43:46.123Z,15.00
2019-04-20T01:46:18.271Z,15.10
2019-04-20T01:48:43.412Z,15.00
2019-04-20T01:51:17.510Z,15.10
2019-04-20T01:54:02.233Z,15.00
2019-04-20T01:56:27.638Z,15.00
2019-04-20T01:59:18.739Z,15.00
2019-04-20T02:02:04.059Z,15.00
2019-04-20T02:04:48.921Z,14.90
2019-04-20T02:07:18.493Z,15.00
2019-04-20T02:09:50.345Z,15.00
2019-04-20T02:12:18.912Z,14.70
2019-04-20T02:14:48.445Z,14.90
2019-04-20T02:17:25.118Z,14.90
2019-04-20T02:20:00.914Z,14.90
2019-04-20T02:22:23.156Z,15.00
2019-04-20T02:24:37.470Z,15.00
2019-04-20T02:27:06.205Z,15.00
2019-04-20T02:29:56.772Z,15.00
2019-04-20T02:32:26.561Z,15.00
2019-04-20T02:35:40.433Z,14.80
2019-04-20T02:40:45.219Z,14.80
2019-04-20T02:43:15.108Z,14.80
2019-04-20T02:45:33.361Z,14.80
2019-04-20T02:53:15.595Z,14.80
2019-04-20T02:55:26.688Z,14.70
2019-04-20T03:00:22.040Z,14.70
2019-04-20T03:02:34.581Z,14.60
2019-04-20T03:05:02.627Z,14.60
2019-04-20T03:07:31.459Z,14.60
2019-04-20T03:10:06.554Z,14.50
2019-04-20T03:12:38.903Z,14.50
2019-04-20T03:14:58.570Z,14.50
2019-04-20T03:17:32.649Z,14.50
2019-04-20T03:19:53.678Z,14.40
2019-04-20T03:23:01.038Z,14.40
2019-04-20T03:25:06.170Z,14.40
2019-04-20T03:27:36.823Z,14.30
2019-04-20T03:33:12.370Z,14.40
2019-04-20T03:35:52.758Z,14.30
2019-04-20T03:38:01.687Z,14.30
2019-04-20T03:40:21.568Z,14.30
2019-04-20T03:42:35.334Z,14.30
2019-04-20T03:45:07.571Z,14.20
2019-04-20T03:47:43.736Z,14.30
2019-04-20T03:50:24.441Z,14.30
2019-04-20T03:53:13.016Z,14.30
2019-04-20T03:56:14.047Z,14.20
2019-04-20T03:58:44.113Z,14.10
2019-04-20T04:01:37.469Z,14.10
2019-04-20T04:04:06.657Z,14.30
2019-04-20T04:06:23.482Z,14.10
2019-04-20T04:08:55.918Z,14.00
2019-04-20T04:11:26.209Z,13.90
2019-04-20T04:13:37.739Z,13.90
2019-04-20T04:16:10.131Z,13.80
2019-04-20T04:18:40.296Z,13.80
2019-04-20T04:21:08.360Z,13.70
2019-04-20T04:23:52.889Z,13.70
2019-04-20T04:26:17.289Z,13.70
2019-04-20T04:28:43.820Z,13.60
2019-04-20T04:31:33.379Z,13.50
2019-04-20T04:36:10.094Z,14.50
2019-04-20T04:38:47.559Z,13.10
2019-04-20T04:41:19.963Z,13.20
2019-04-20T04:43:39.994Z,13.20
2019-04-20T04:45:51.421Z,13.10
2019-04-20T04:48:25.198Z,14.10
2019-04-20T04:50:54.505Z,13.10
2019-04-20T04:53:27.213Z,13.10
2019-04-20T04:55:52.871Z,13.10
2019-04-20T04:58:14.881Z,13.20
2019-04-20T05:00:42.623Z,13.20
2019-04-20T05:03:27.004Z,13.10
2019-04-20T05:06:03.535Z,13.10
2019-04-20T05:08:23.402Z,13.10
2019-04-20T05:10:43.585Z,13.20
2019-04-20T05:13:11.343Z,13.20
2019-04-20T05:15:57.038Z,13.00
2019-04-20T05:18:34.789Z,13.20
2019-04-20T05:20:58.911Z,13.20
2019-04-20T05:23:24.251Z,13.10
2019-04-20T05:26:30.990Z,13.00
2019-04-20T05:28:55.630Z,13.00
2019-04-20T05:31:16.873Z,13.00
2019-04-20T05:34:08.090Z,13.10
2019-04-20T05:36:37.425Z,13.10
2019-04-20T05:39:10.347Z,13.20
2019-04-20T05:41:26.523Z,13.30
2019-04-20T05:43:59.463Z,13.50
2019-04-20T05:46:30.847Z,13.50
2019-04-20T05:49:03.128Z,13.60
2019-04-20T05:51:38.288Z,13.60
2019-04-20T05:53:59.221Z,13.70
2019-04-20T05:56:30.687Z,13.70
2019-04-20T05:58:57.964Z,13.80
2019-04-20T06:01:25.040Z,13.90
2019-04-20T06:03:55.457Z,13.90
2019-04-20T06:06:22.110Z,14.00
2019-04-20T06:08:59.998Z,14.30
2019-04-20T06:11:24.105Z,14.50
2019-04-20T06:14:05.005Z,15.00
2019-04-20T06:17:04.867Z,15.80
2019-04-20T06:19:31.995Z,16.70
2019-04-20T06:22:12.721Z,17.50
2019-04-20T06:24:47.845Z,18.20
2019-04-20T06:27:12.685Z,18.70
2019-04-20T06:29:34.818Z,19.20
2019-04-20T06:32:17.521Z,19.80
2019-04-20T06:37:18.452Z,20.90
2019-04-20T06:47:16.460Z,22.60
2019-04-20T06:55:36.870Z,23.20
2019-04-20T06:57:54.744Z,23.40
2019-04-20T07:02:42.358Z,24.30
2019-04-20T07:05:15.698Z,24.20
2019-04-20T07:07:41.876Z,24.30
2019-04-20T07:10:13.378Z,24.20
2019-04-20T07:12:33.063Z,23.90
2019-04-20T07:14:55.605Z,24.40
2019-04-20T07:17:45.855Z,24.50
2019-04-20T07:20:51.627Z,24.70
2019-04-20T07:23:21.356Z,24.40
2019-04-20T07:25:43.363Z,25.00
2019-04-20T07:28:15.183Z,25.40
2019-04-20T07:30:35.426Z,25.60
2019-04-20T07:33:06.882Z,25.50
2019-04-20T07:35:35.724Z,25.60
2019-04-20T07:40:34.786Z,25.30
2019-04-20T07:43:08.130Z,26.10
2019-04-20T07:45:29.573Z,25.70
2019-04-20T07:48:04.177Z,26.30
2019-04-20T07:50:21.736Z,26.40
2019-04-20T07:52:46.559Z,27.20
2019-04-20T07:55:40.518Z,27.40
2019-04-20T07:57:47.143Z,27.50
2019-04-20T08:00:35.539Z,27.80
2019-04-20T08:03:18.535Z,27.70
2019-04-20T08:05:57.275Z,27.40
2019-04-20T08:08:30.442Z,27.40
2019-04-20T08:10:59.589Z,27.10
2019-04-20T08:16:00.901Z,27.20
2019-04-20T08:18:36.129Z,28.00
2019-04-20T08:20:58.140Z,28.60
2019-04-20T08:23:38.843Z,28.80
2019-04-20T08:25:47.361Z,29.10
2019-04-20T08:28:23.305Z,28.70
2019-04-20T08:31:18.301Z,28.50
2019-04-20T08:34:03.287Z,28.20
2019-04-20T08:36:25.759Z,27.90
2019-04-20T08:41:18.205Z,27.40
2019-04-20T08:44:18.578Z,27.20
2019-04-20T08:46:22.037Z,28.10
2019-04-20T08:48:47.953Z,28.50
2019-04-20T08:51:13.111Z,28.80
2019-04-20T08:53:50.717Z,29.10
2019-04-20T08:56:08.110Z,29.40
2019-04-20T08:58:22.557Z,29.10
2019-04-20T09:00:57.631Z,28.90
2019-04-20T09:03:25.407Z,28.60
2019-04-20T09:05:59.133Z,28.80
2019-04-20T09:08:23.933Z,27.90
2019-04-20T09:11:03.412Z,27.70
2019-04-20T09:13:25.987Z,28.10
2019-04-20T09:15:43.035Z,28.70
2019-04-20T09:18:43.299Z,29.20
2019-04-20T09:21:15.152Z,28.90
2019-04-20T09:23:45.936Z,29.00
2019-04-20T09:26:24.099Z,28.70
2019-04-20T09:28:54.662Z,29.00
2019-04-20T09:31:43.316Z,28.90
2019-04-20T09:34:20.259Z,29.00
2019-04-20T09:36:50.047Z,28.70
2019-04-20T09:39:27.149Z,28.90
2019-04-20T09:42:00.646Z,29.20
2019-04-20T09:44:25.623Z,30.10
2019-04-20T09:46:53.340Z,31.20
2019-04-20T09:49:30.693Z,31.10
2019-04-20T09:52:01.468Z,30.80
2019-04-20T09:54:45.338Z,30.80
2019-04-20T09:57:03.265Z,31.30
2019-04-20T09:59:33.164Z,32.00
2019-04-20T10:01:46.826Z,32.20
2019-04-20T10:04:11.060Z,33.20
2019-04-20T10:06:39.378Z,32.50
2019-04-20T10:09:07.338Z,32.10
2019-04-20T10:11:35.192Z,32.20
2019-04-20T10:14:03.918Z,32.30
2019-04-20T10:16:31.510Z,32.90
2019-04-20T10:18:58.833Z,33.00
2019-04-20T10:21:25.903Z,32.40
2019-04-20T10:23:52.958Z,32.50
2019-04-20T10:26:20.611Z,33.70
2019-04-20T10:28:47.725Z,34.10
2019-04-20T10:31:14.832Z,33.50
2019-04-20T10:33:41.813Z,33.80
2019-04-20T10:36:19.513Z,33.80
2019-04-20T10:38:46.594Z,34.70
2019-04-20T10:41:22.029Z,33.80
2019-04-20T10:43:42.874Z,34.10
2019-04-20T10:46:11.054Z,34.80
2019-04-20T10:48:45.292Z,34.50
2019-04-20T10:51:08.246Z,34.40
2019-04-20T10:53:36.612Z,33.50
2019-04-20T10:56:03.650Z,33.50
2019-04-20T10:58:31.690Z,34.70
2019-04-20T11:00:59.754Z,34.00
2019-04-20T11:03:26.804Z,34.10
2019-04-20T11:05:53.735Z,32.60
2019-04-20T11:08:20.817Z,32.00
2019-04-20T11:10:58.977Z,32.50
2019-04-20T11:13:17.220Z,32.60
2019-04-20T11:15:44.381Z,32.80
2019-04-20T11:18:11.393Z,32.40
2019-04-20T11:20:39.421Z,32.80
2019-04-20T11:23:06.656Z,33.30
2019-04-20T11:25:34.423Z,33.30
2019-04-20T11:28:01.842Z,33.50
2019-04-20T11:30:29.969Z,33.80
2019-04-20T11:32:58.076Z,33.30
2019-04-20T11:35:31.184Z,33.40
2019-04-20T11:37:55.356Z,33.00
2019-04-20T11:40:23.543Z,33.20
2019-04-20T11:42:50.510Z,33.90
2019-04-20T11:45:18.440Z,33.70
2019-04-20T11:47:45.436Z,33.30
2019-04-20T11:50:13.706Z,32.60
2019-04-20T11:52:45.906Z,32.20
2019-04-20T11:55:10.511Z,32.30
2019-04-20T11:57:37.616Z,32.20
2019-04-20T12:00:05.490Z,32.20
2019-04-20T12:02:42.552Z,32.30
2019-04-20T12:05:22.039Z,31.50
2019-04-20T12:07:53.153Z,32.10
2019-04-20T12:10:23.648Z,32.70
2019-04-20T12:12:52.196Z,32.20
2019-04-20T12:15:18.838Z,32.00
2019-04-20T12:17:45.793Z,31.70
2019-04-20T12:20:12.920Z,31.70
2019-04-20T12:22:40.093Z,31.70
2019-04-20T12:25:07.942Z,31.00
2019-04-20T12:27:34.959Z,30.10
2019-04-20T12:30:02.111Z,30.40
2019-04-20T12:32:35.278Z,30.40
2019-04-20T12:34:58.261Z,29.70
2019-04-20T12:37:25.334Z,29.20
2019-04-20T12:39:53.274Z,29.30
2019-04-20T12:42:21.193Z,29.40
2019-04-20T12:44:48.129Z,29.60
2019-04-20T12:47:15.044Z,30.10
2019-04-20T12:49:43.121Z,30.60
2019-04-20T12:52:10.439Z,30.90
2019-04-20T12:54:39.967Z,30.40
2019-04-20T12:57:06.764Z,29.70
2019-04-20T12:59:33.723Z,29.20
2019-04-20T13:02:01.607Z,28.30
2019-04-20T13:04:30.071Z,28.00
2019-04-20T13:06:57.673Z,27.40
2019-04-20T13:09:30.636Z,26.90
2019-04-20T13:12:06.993Z,26.60
2019-04-20T13:15:02.375Z,26.50
2019-04-20T13:17:30.482Z,26.60
2019-04-20T13:19:57.524Z,26.50
2019-04-20T13:22:25.350Z,26.10
2019-04-20T13:24:52.837Z,26.00
2019-04-20T13:27:20.871Z,25.90
2019-04-20T13:29:50.773Z,25.80
2019-04-20T13:32:18.116Z,25.80
2019-04-20T13:34:44.998Z,25.70
2019-04-20T13:37:11.948Z,25.70
2019-04-20T13:39:38.796Z,25.60
2019-04-20T13:42:12.257Z,25.70
2019-04-20T13:44:34.939Z,25.70
2019-04-20T13:47:03.080Z,25.60
2019-04-20T13:49:31.246Z,25.50
2019-04-20T13:51:59.048Z,25.60
2019-04-20T13:54:29.881Z,25.50
2019-04-20T13:56:59.640Z,24.90
2019-04-20T13:59:37.743Z,25.60
2019-04-20T14:02:20.520Z,25.50
2019-04-20T14:04:54.844Z,25.50
2019-04-20T14:07:23.801Z,25.50
2019-04-20T14:09:51.194Z,25.60
2019-04-20T14:12:25.079Z,25.60
2019-04-20T14:14:47.019Z,25.50
2019-04-20T14:17:15.055Z,25.40
2019-04-20T14:19:43.154Z,25.40
2019-04-20T14:22:10.434Z,25.40
2019-04-20T14:24:37.615Z,25.50
2019-04-20T14:27:04.592Z,25.40
2019-04-20T14:29:32.527Z,25.40
2019-04-20T14:32:01.525Z,25.40
2019-04-20T14:34:29.037Z,25.40
2019-04-20T14:36:57.122Z,25.30
2019-04-20T14:39:24.574Z,25.40
2019-04-20T14:41:52.017Z,25.50
2019-04-20T14:44:19.608Z,25.50
2019-04-20T14:46:47.545Z,25.40
2019-04-20T14:49:14.820Z,25.30
2019-04-20T14:51:41.835Z,25.30
2019-04-20T14:54:09.659Z,25.30
2019-04-20T14:56:37.762Z,25.20
2019-04-20T14:59:15.557Z,25.10
2019-04-20T15:01:48.479Z,25.30
2019-04-20T15:04:18.646Z,25.30
2019-04-20T15:06:44.523Z,25.20
2019-04-20T15:09:12.840Z,25.10
2019-04-20T15:11:41.667Z,25.00
2019-04-20T15:14:09.045Z,25.00
2019-04-20T15:16:36.173Z,25.10
2019-04-20T15:19:25.679Z,25.10
2019-04-20T15:21:55.626Z,25.20
2019-04-20T15:24:23.767Z,25.10
2019-04-20T15:26:52.095Z,25.00
2019-04-20T15:29:20.179Z,25.00
2019-04-20T15:31:48.139Z,25.10
2019-04-20T15:34:15.343Z,25.00
2019-04-20T15:36:42.393Z,24.90
2019-04-20T15:39:09.441Z,24.80
2019-04-20T15:41:36.655Z,24.90
2019-04-20T15:44:04.266Z,24.90
2019-04-20T15:46:33.502Z,24.90
2019-04-20T15:49:00.248Z,24.80
2019-04-20T15:51:27.958Z,24.80
2019-04-20T15:53:55.607Z,24.80
2019-04-20T15:56:22.745Z,24.70
2019-04-20T15:58:50.431Z,24.70
2019-04-20T16:01:18.715Z,24.70
2019-04-20T16:03:53.384Z,24.80
2019-04-20T16:06:21.233Z,24.70
2019-04-20T16:08:52.302Z,24.60
2019-04-20T16:11:19.483Z,24.60
2019-04-20T16:13:50.059Z,24.60
2019-04-20T16:16:16.187Z,24.60
2019-04-20T16:18:43.410Z,24.60
2019-04-20T16:21:16.429Z,24.60
2019-04-20T16:23:43.911Z,24.60
2019-04-20T16:26:31.585Z,24.50
2019-04-20T16:28:59.688Z,24.40
2019-04-20T16:31:26.889Z,24.30
2019-04-20T16:33:56.886Z,24.30
2019-04-20T16:36:22.945Z,24.30
2019-04-20T16:38:51.106Z,24.30
2019-04-20T16:41:18.290Z,24.30
2019-04-20T16:43:46.741Z,24.30
2019-04-20T16:46:17.906Z,24.20
2019-04-20T16:48:44.200Z,24.20
2019-04-20T16:51:11.152Z,24.40
2019-04-20T16:53:39.524Z,24.10
2019-04-20T16:56:06.678Z,24.00
2019-04-20T16:58:35.805Z,24.00
2019-04-20T17:01:05.628Z,24.00
2019-04-20T17:03:48.883Z,24.00
2019-04-20T17:06:02.321Z,24.00
2019-04-20T17:08:29.237Z,23.90
2019-04-20T17:10:56.166Z,23.90
2019-04-20T17:13:35.272Z,23.80
2019-04-20T17:15:52.066Z,23.90
2019-04-20T17:18:19.330Z,23.80
2019-04-20T17:20:46.596Z,23.80
2019-04-20T17:23:13.547Z,23.70
2019-04-20T17:25:41.810Z,23.60
2019-04-20T17:28:22.681Z,23.50
2019-04-20T17:31:09.212Z,23.40
2019-04-20T17:33:58.979Z,23.40
2019-04-20T17:36:24.357Z,23.30
2019-04-20T17:38:53.945Z,23.20
2019-04-20T17:41:39.164Z,23.20
2019-04-20T17:44:07.152Z,23.10
2019-04-20T17:46:28.756Z,23.00
2019-04-20T17:48:59.705Z,23.00
2019-04-20T17:51:34.398Z,22.90
2019-04-20T17:54:06.390Z,22.90
2019-04-20T17:56:36.278Z,22.80
2019-04-20T17:59:04.056Z,22.70
2019-04-20T18:02:13.120Z,22.70
2019-04-20T18:05:15.950Z,22.50
2019-04-20T18:07:39.474Z,22.40
2019-04-20T18:10:02.963Z,22.30
2019-04-20T18:12:23.188Z,22.30
2019-04-20T18:14:57.386Z,22.10
2019-04-20T18:17:49.608Z,22.10
2019-04-20T18:20:05.194Z,21.90
2019-04-20T18:22:33.980Z,21.90
2019-04-20T18:25:20.907Z,21.80
2019-04-20T18:27:50.352Z,21.40
2019-04-20T18:30:16.102Z,21.50
2019-04-20T18:32:33.596Z,21.40
2019-04-20T18:35:08.495Z,21.20
2019-04-20T18:37:36.528Z,21.00
2019-04-20T18:40:10.725Z,20.90
2019-04-20T18:42:38.852Z,20.90
2019-04-20T18:45:25.329Z,20.70
2019-04-20T18:47:49.663Z,20.70
2019-04-20T18:50:10.792Z,20.60
2019-04-20T18:52:31.536Z,20.60
2019-04-20T18:54:59.559Z,20.50
2019-04-20T18:57:29.648Z,20.40
2019-04-20T18:59:57.229Z,20.40
2019-04-20T19:02:27.928Z,20.30
2019-04-20T19:04:56.971Z,20.30
2019-04-20T19:07:23.643Z,20.20
2019-04-20T19:09:55.271Z,20.10
2019-04-20T19:12:28.478Z,20.10
2019-04-20T19:15:30.457Z,20.10
2019-04-20T19:18:00.938Z,20.00
2019-04-20T19:20:24.776Z,20.00
2019-04-20T19:22:52.372Z,19.90
2019-04-20T19:25:27.387Z,19.70
2019-04-20T19:27:53.772Z,19.60
2019-04-20T19:30:27.535Z,19.60
2019-04-20T19:33:05.022Z,19.50
2019-04-20T19:35:30.793Z,19.40
2019-04-20T19:37:56.178Z,19.30
2019-04-20T19:40:24.718Z,19.30
2019-04-20T19:42:54.564Z,19.20
2019-04-20T19:45:38.214Z,19.30
2019-04-20T19:47:56.941Z,19.10
2019-04-20T19:50:36.755Z,19.00
2019-04-20T19:53:05.766Z,19.00
2019-04-20T19:55:25.948Z,19.00
2019-04-20T19:57:50.970Z,18.80
2019-04-20T20:00:06.450Z,18.70
2019-04-20T20:02:35.960Z,18.80
2019-04-20T20:05:08.704Z,18.80
2019-04-20T20:07:38.865Z,18.60
2019-04-20T20:10:07.774Z,18.70
2019-04-20T20:12:33.650Z,18.60
2019-04-20T20:15:01.682Z,18.60
2019-04-20T20:17:48.140Z,18.50
2019-04-20T20:20:27.500Z,18.50
2019-04-20T20:22:34.231Z,18.40
2019-04-20T20:24:55.075Z,18.50
2019-04-20T20:27:31.445Z,18.40
2019-04-20T20:29:59.499Z,18.40
2019-04-20T20:32:38.895Z,18.40
2019-04-20T20:34:56.078Z,18.30
2019-04-20T20:37:25.411Z,18.40
2019-04-20T20:39:53.861Z,18.30
2019-04-20T20:42:28.249Z,18.30
2019-04-20T20:44:53.860Z,18.30
2019-04-20T20:47:38.279Z,18.30
2019-04-20T20:50:07.971Z,18.20
2019-04-20T20:52:27.707Z,18.20
2019-04-20T20:54:49.785Z,18.10
2019-04-20T20:57:13.246Z,18.10
2019-04-20T20:59:48.036Z,18.10
2019-04-20T21:02:12.724Z,18.10
2019-04-20T21:04:35.336Z,18.10
2019-04-20T21:07:02.680Z,18.00
2019-04-20T21:09:31.234Z,18.00
2019-04-20T21:12:03.440Z,18.00
2019-04-20T21:14:31.139Z,17.90
2019-04-20T21:17:02.913Z,17.90
2019-04-20T21:19:45.339Z,17.90
2019-04-20T21:22:02.989Z,17.70
2019-04-20T21:24:27.250Z,17.80
2019-04-20T21:26:55.979Z,17.80
2019-04-20T21:29:32.804Z,17.70
2019-04-20T21:32:01.837Z,17.70
2019-04-20T21:34:23.632Z,17.70
2019-04-20T21:36:56.175Z,17.70
2019-04-20T21:39:31.365Z,17.60
2019-04-20T21:41:56.053Z,17.60
2019-04-20T21:44:24.377Z,17.50
2019-04-20T21:46:51.150Z,17.50
2019-04-20T21:49:33.543Z,17.50
2019-04-20T21:51:50.324Z,17.40
2019-04-20T21:54:12.112Z,17.40
2019-04-20T21:56:48.905Z,17.40
2019-04-20T21:59:19.131Z,17.40
2019-04-20T22:01:39.756Z,17.30
2019-04-20T22:04:06.057Z,17.30
2019-04-20T22:06:34.252Z,17.30
2019-04-20T22:09:04.025Z,17.30
2019-04-20T22:11:30.056Z,17.30
2019-04-20T22:13:57.439Z,17.20
2019-04-20T22:16:31.297Z,17.30
2019-04-20T22:19:10.318Z,17.20
2019-04-20T22:21:31.180Z,17.20
2019-04-20T22:24:04.294Z,17.20
2019-04-20T22:26:30.054Z,17.10
2019-04-20T22:28:50.023Z,17.10
2019-04-20T22:31:18.342Z,17.00
2019-04-20T22:33:46.850Z,17.00
2019-04-20T22:36:14.935Z,16.80
2019-04-20T22:39:07.234Z,17.00
2019-04-20T22:41:38.572Z,16.90
2019-04-20T22:44:11.547Z,16.90
2019-04-20T22:46:37.591Z,16.80
2019-04-20T22:49:22.245Z,16.80
2019-04-20T22:51:44.863Z,16.80
2019-04-20T22:54:17.562Z,16.80
2019-04-20T22:56:43.726Z,16.70
2019-04-20T22:59:07.397Z,16.70
2019-04-20T23:01:38.771Z,16.70
2019-04-20T23:03:57.024Z,16.60
2019-04-20T23:06:25.264Z,16.60
2019-04-20T23:08:58.562Z,16.50
2019-04-20T23:11:26.958Z,16.60
2019-04-20T23:13:52.030Z,16.40
2019-04-20T23:16:19.113Z,16.30
2019-04-20T23:18:46.391Z,16.40
2019-04-20T23:21:16.105Z,16.30
2019-04-20T23:23:43.603Z,16.30
2019-04-20T23:26:11.256Z,16.30
2019-04-20T23:28:46.893Z,16.20
2019-04-20T23:31:15.218Z,16.20
2019-04-20T23:33:38.087Z,15.60
2019-04-20T23:36:06.761Z,16.20
2019-04-20T23:38:34.751Z,16.10
2019-04-20T23:41:02.039Z,16.10
2019-04-20T23:43:40.500Z,16.10
2019-04-20T23:46:24.653Z,16.00
2019-04-20T23:49:16.990Z,16.00
2019-04-20T23:51:59.247Z,16.00
2019-04-20T23:54:12.857Z,15.90
2019-04-20T23:56:35.408Z,15.90
2019-04-20T23:59:02.443Z,15.90
